createdAt,value
2022-09-29T01:50:40.870Z,935.95
2022-09-29T01:56:48.048Z,935.63
2022-09-29T01:57:48.391Z,935.64
2022-09-29T01:58:49.207Z,935.56
2022-09-29T01:59:48.426Z,935.52
2022-09-29T02:00:48.449Z,935.50
2022-09-29T02:01:50.683Z,935.49
2022-09-29T02:02:48.319Z,935.45
2022-09-29T02:03:49.004Z,935.45
2022-09-29T02:04:48.382Z,935.33
2022-09-29T02:05:48.326Z,935.38
2022-09-29T02:06:48.269Z,935.41
2022-09-29T02:07:56.224Z,935.47
2022-09-29T02:08:48.266Z,935.59
2022-09-29T02:09:48.266Z,935.65
2022-09-29T02:10:48.232Z,935.70
2022-09-29T02:11:51.199Z,935.70
2022-09-29T02:12:48.909Z,935.77
2022-09-29T02:14:22.061Z,935.78
2022-09-29T02:14:48.255Z,935.82
2022-09-29T08:34:05.691Z,935.92
2022-09-29T08:35:05.441Z,935.89
2022-09-29T08:36:05.455Z,935.90
2022-09-29T08:37:05.431Z,935.93
2022-09-29T08:38:05.698Z,935.91
2022-09-29T08:39:05.401Z,935.88
2022-09-29T08:40:05.378Z,935.92
2022-09-29T10:29:27.667Z,936.61
2022-09-29T10:29:59.396Z,936.73
2022-09-29T10:49:17.981Z,936.73
2022-09-29T10:50:17.886Z,936.75
2022-09-29T10:50:55.692Z,936.84
2022-09-29T10:51:55.628Z,936.81
2022-09-29T10:52:55.702Z,936.83
2022-09-29T11:43:30.777Z,937.11
2022-09-29T11:44:31.771Z,937.13
2022-09-29T11:45:32.732Z,937.16
2022-09-29T11:47:43.577Z,937.18
2022-09-29T11:48:44.030Z,937.21
2022-09-29T11:58:16.989Z,937.30
2022-09-29T11:59:03.453Z,937.32
2022-09-29T12:00:03.408Z,937.28
2022-09-29T12:02:52.123Z,937.35
2022-09-29T12:03:53.038Z,937.31
2022-09-29T12:12:31.186Z,937.05
2022-09-29T12:13:26.934Z,936.99
2022-09-29T12:14:26.952Z,937.00
2022-09-29T12:15:28.996Z,937.01
2022-09-29T12:16:26.974Z,937.02
2022-09-29T12:17:26.945Z,937.04
2022-09-29T12:18:26.871Z,937.08
2022-09-29T12:19:26.844Z,937.04
2022-09-29T12:20:27.795Z,937.02
2022-09-29T12:21:26.874Z,937.05
2022-09-29T12:23:00.368Z,936.96
2022-09-29T12:23:27.606Z,936.97
2022-09-29T12:24:27.616Z,936.94
2022-09-29T12:27:34.612Z,937.03
2022-09-29T12:28:37.745Z,936.98
2022-09-29T12:29:35.569Z,936.98
2022-09-29T12:30:35.588Z,936.94
2022-09-29T12:31:37.185Z,936.93
2022-09-29T12:32:43.538Z,936.98
2022-09-29T12:33:36.439Z,936.92
2022-09-29T12:34:36.517Z,936.97
2022-09-29T12:35:35.469Z,937.01
2022-09-29T12:38:18.564Z,937.03
2022-09-29T12:39:19.474Z,936.97
2022-09-29T12:40:18.769Z,936.99
2022-09-29T12:41:18.752Z,937.01
2022-09-29T12:42:18.755Z,937.04
2022-09-29T18:59:57.903Z,935.44
2022-09-29T19:01:18.431Z,935.42
2022-09-29T19:01:55.289Z,935.40
2022-09-29T19:02:56.904Z,935.36
